Current Weather

Battle Creek Exec at Kellogg Fld

Battle Creek, Michigan (KBTL)

Report from: Friday, June 21, 2024 8:53 PM EDT
Current time: Friday, June 21, 2024 9:05 PM EDT

Nearby weather – Weather history – Daily summaries
Weather forecast

Temperature28.3°C (82.9°F)
Heat index30.3°C (86.5°F)
Dew point20.0°C (68.0°F)
Winds 3 kts (1.5 m/s, 3.5 mph) North (360°)
Visibility10 mi. (16.1 km)
Clouds Sky clear
Altimeter30.11 in.Hg (1020 mB)
Relative humidity61 %
Density altitude1,660 ft. (506 m)
Sea-level pressure101.9 kPa (1019 mB, 30.09 in.Hg)
Remarks Automated weather observing station with precipitation discriminator
Flight conditions Visual Meteorological Conditions
Raw dataKBTL 220053Z 36003KT 10SM CLR 28/20 A3011 RMK AO2 SLP188 T02830200
An error has occurred. This application may no longer respond until reloaded. Reload 🗙